createdAt,value
2019-04-30T00:00:18.324Z,29.30
2019-04-30T00:02:49.761Z,29.30
2019-04-30T00:05:19.520Z,29.30
2019-04-30T00:07:50.824Z,29.30
2019-04-30T00:10:20.916Z,29.40
2019-04-30T00:12:50.691Z,29.40
2019-04-30T00:15:20.390Z,29.40
2019-04-30T00:17:52.984Z,29.30
2019-04-30T00:20:21.720Z,29.40
2019-04-30T00:22:51.363Z,29.50
2019-04-30T00:25:24.959Z,29.50
2019-04-30T00:27:52.315Z,29.50
2019-04-30T00:30:22.079Z,29.50
2019-04-30T00:32:51.880Z,29.50
2019-04-30T00:35:22.024Z,29.60
2019-04-30T00:37:56.192Z,29.70
2019-04-30T00:40:26.757Z,29.60
2019-04-30T00:42:55.967Z,29.70
2019-04-30T00:45:25.894Z,29.80
2019-04-30T00:47:55.981Z,29.80
2019-04-30T00:50:29.128Z,29.80
2019-04-30T00:52:57.866Z,29.80
2019-04-30T00:55:27.688Z,29.90
2019-04-30T00:57:57.363Z,29.80
2019-04-30T01:00:29.573Z,29.90
2019-04-30T01:03:00.884Z,30.10
2019-04-30T01:05:31.716Z,29.90
2019-04-30T01:08:01.449Z,29.90
2019-04-30T01:10:31.161Z,30.10
2019-04-30T01:13:08.040Z,30.40
2019-04-30T01:15:32.088Z,30.10
2019-04-30T01:18:01.791Z,30.10
2019-04-30T01:20:33.059Z,29.90
2019-04-30T01:23:03.147Z,30.40
2019-04-30T01:25:34.121Z,30.10
2019-04-30T01:28:04.235Z,30.30
2019-04-30T01:30:34.221Z,30.10
2019-04-30T01:33:04.008Z,30.10
2019-04-30T01:35:34.023Z,30.10
2019-04-30T01:38:08.131Z,30.10
2019-04-30T01:40:36.306Z,30.30
2019-04-30T01:43:06.387Z,30.30
2019-04-30T01:45:36.134Z,30.30
2019-04-30T01:48:10.766Z,30.30
2019-04-30T01:50:38.644Z,30.30
2019-04-30T01:53:13.150Z,30.30
2019-04-30T01:55:44.964Z,30.40
2019-04-30T01:58:19.465Z,30.40
2019-04-30T02:00:53.485Z,30.40
2019-04-30T02:03:23.622Z,30.60
2019-04-30T02:05:53.317Z,30.60
2019-04-30T02:08:23.006Z,30.60
2019-04-30T02:10:53.052Z,30.60
2019-04-30T02:13:22.717Z,30.60
2019-04-30T02:15:52.789Z,30.40
2019-04-30T02:18:22.800Z,30.40
2019-04-30T02:20:52.472Z,30.60
2019-04-30T02:23:22.426Z,30.40
2019-04-30T02:25:52.067Z,30.30
2019-04-30T02:28:21.685Z,30.40
2019-04-30T02:30:51.378Z,30.40
2019-04-30T02:33:21.389Z,30.60
2019-04-30T02:35:52.730Z,30.60
2019-04-30T02:38:24.380Z,30.70
2019-04-30T02:40:54.491Z,30.60
2019-04-30T02:43:25.791Z,30.60
2019-04-30T02:45:59.896Z,30.60
2019-04-30T02:48:31.763Z,30.70
2019-04-30T02:51:03.759Z,30.70
2019-04-30T02:53:52.012Z,30.70
2019-04-30T02:56:26.503Z,30.80
2019-04-30T02:58:54.733Z,30.80
2019-04-30T03:01:24.392Z,30.80
2019-04-30T03:03:54.016Z,30.70
2019-04-30T03:06:23.912Z,30.60
2019-04-30T03:08:53.624Z,30.70
2019-04-30T03:11:23.363Z,30.60
2019-04-30T03:13:53.076Z,30.40
2019-04-30T03:16:42.557Z,30.60
2019-04-30T03:19:19.734Z,30.60
2019-04-30T03:21:54.029Z,30.70
2019-04-30T03:24:23.681Z,30.70
2019-04-30T03:26:53.277Z,30.70
2019-04-30T03:29:24.052Z,30.70
2019-04-30T03:31:53.928Z,30.70
2019-04-30T03:34:25.773Z,30.70
2019-04-30T03:36:54.957Z,30.40
2019-04-30T03:39:24.984Z,30.40
2019-04-30T03:41:54.747Z,30.40
2019-04-30T03:44:25.915Z,30.40
2019-04-30T03:46:55.923Z,30.70
2019-04-30T03:49:25.874Z,30.70
2019-04-30T03:51:59.826Z,30.40
2019-04-30T03:54:29.954Z,30.40
2019-04-30T03:57:01.062Z,30.40
2019-04-30T03:59:30.991Z,30.10
2019-04-30T04:02:12.927Z,30.10
2019-04-30T04:04:52.526Z,30.10
2019-04-30T04:07:39.524Z,30.10
2019-04-30T04:10:29.773Z,30.30
2019-04-30T04:12:59.723Z,30.10
2019-04-30T04:15:30.016Z,30.30
2019-04-30T04:18:00.408Z,30.30
2019-04-30T04:20:32.025Z,30.30
2019-04-30T04:23:01.749Z,30.30
2019-04-30T04:25:31.521Z,30.30
2019-04-30T04:28:01.127Z,30.30
2019-04-30T04:30:30.917Z,30.30
2019-04-30T04:33:00.662Z,30.30
2019-04-30T04:35:30.324Z,30.30
2019-04-30T04:38:00.536Z,30.40
2019-04-30T04:40:31.899Z,30.30
2019-04-30T04:43:01.601Z,30.10
2019-04-30T04:45:31.686Z,30.10
2019-04-30T04:48:01.456Z,37.60
2019-04-30T04:50:31.509Z,38.20
2019-04-30T04:53:01.277Z,36.90
2019-04-30T04:55:31.000Z,35.90
2019-04-30T04:58:00.777Z,34.70
2019-04-30T05:00:30.479Z,34.00
2019-04-30T05:03:01.875Z,33.20
2019-04-30T05:05:31.928Z,32.30
2019-04-30T05:08:01.594Z,31.70
2019-04-30T05:10:31.373Z,31.00
2019-04-30T05:13:01.124Z,30.40
2019-04-30T05:15:30.875Z,29.70
2019-04-30T05:18:00.693Z,29.40
2019-04-30T05:20:49.829Z,29.10
2019-04-30T05:23:21.874Z,28.90
2019-04-30T05:25:50.829Z,28.70
2019-04-30T05:28:20.520Z,26.90
2019-04-30T05:30:50.261Z,27.20
2019-04-30T05:33:21.443Z,27.30
2019-04-30T05:35:51.189Z,27.50
2019-04-30T05:38:20.882Z,27.60
2019-04-30T05:40:50.586Z,27.80
2019-04-30T05:43:20.297Z,27.80
2019-04-30T05:45:50.314Z,28.10
2019-04-30T05:48:20.034Z,28.10
2019-04-30T05:50:51.834Z,28.20
2019-04-30T05:53:21.666Z,28.10
2019-04-30T05:55:51.287Z,28.20
2019-04-30T05:58:20.996Z,28.20
2019-04-30T06:00:50.797Z,28.30
2019-04-30T06:03:28.096Z,31.30
2019-04-30T06:05:51.947Z,30.70
2019-04-30T06:08:23.360Z,30.10
2019-04-30T06:10:59.633Z,29.40
2019-04-30T06:13:49.231Z,28.80
2019-04-30T06:16:20.717Z,28.40
2019-04-30T06:18:50.752Z,28.20
2019-04-30T06:21:21.543Z,28.20
2019-04-30T06:23:51.449Z,28.20
2019-04-30T06:26:21.351Z,28.00
2019-04-30T06:28:51.078Z,28.00
2019-04-30T06:31:31.923Z,27.80
2019-04-30T06:33:52.214Z,27.90
2019-04-30T06:36:22.249Z,28.00
2019-04-30T06:38:51.981Z,27.90
2019-04-30T06:41:21.687Z,27.70
2019-04-30T06:43:53.076Z,27.80
2019-04-30T06:46:23.279Z,27.70
2019-04-30T06:48:53.673Z,27.50
2019-04-30T06:51:23.428Z,27.40
2019-04-30T06:53:53.329Z,27.10
2019-04-30T06:56:22.968Z,26.90
2019-04-30T06:58:52.951Z,26.80
2019-04-30T07:01:25.687Z,26.90
2019-04-30T07:03:56.929Z,26.70
2019-04-30T07:06:31.796Z,26.60
2019-04-30T07:08:59.730Z,26.40
2019-04-30T07:11:31.049Z,26.20
2019-04-30T07:14:00.732Z,26.10
2019-04-30T07:16:30.566Z,26.00
2019-04-30T07:19:00.421Z,25.80
2019-04-30T07:21:31.707Z,25.70
2019-04-30T07:24:01.558Z,25.50
2019-04-30T07:26:31.316Z,25.50
2019-04-30T07:29:02.623Z,25.40
2019-04-30T07:31:32.472Z,25.20
2019-04-30T07:34:02.214Z,25.00
2019-04-30T07:36:45.178Z,24.90
2019-04-30T07:39:03.951Z,24.80
2019-04-30T07:41:33.888Z,24.60
2019-04-30T07:44:03.683Z,24.20
2019-04-30T07:46:35.333Z,24.20
2019-04-30T07:49:04.875Z,24.00
2019-04-30T07:51:38.133Z,24.00
2019-04-30T07:54:05.970Z,23.80
2019-04-30T07:56:40.373Z,23.60
2019-04-30T07:59:10.823Z,23.50
2019-04-30T08:01:58.077Z,23.50
2019-04-30T08:04:29.082Z,23.40
2019-04-30T08:06:59.949Z,23.40
2019-04-30T08:09:39.049Z,23.50
2019-04-30T08:12:02.602Z,23.40
2019-04-30T08:14:32.393Z,23.50
2019-04-30T08:17:02.037Z,23.50
2019-04-30T08:19:31.672Z,23.40
2019-04-30T08:22:01.294Z,23.20
2019-04-30T08:24:30.899Z,22.30
2019-04-30T08:27:01.345Z,21.20
2019-04-30T08:29:31.027Z,20.70
2019-04-30T08:32:00.814Z,20.20
2019-04-30T08:34:30.596Z,19.60
2019-04-30T08:37:12.687Z,18.90
2019-04-30T08:39:31.934Z,18.10
2019-04-30T08:42:01.507Z,19.40
2019-04-30T08:44:31.274Z,18.50
2019-04-30T08:47:00.982Z,19.40
2019-04-30T08:49:31.119Z,18.50
2019-04-30T08:52:01.039Z,18.40
2019-04-30T08:54:30.758Z,18.30
2019-04-30T08:57:00.439Z,18.60
2019-04-30T08:59:30.099Z,19.00
2019-04-30T09:02:12.566Z,19.40
2019-04-30T09:04:31.407Z,19.50
2019-04-30T09:07:01.028Z,19.60
2019-04-30T09:09:30.734Z,19.90
2019-04-30T09:12:00.536Z,19.60
2019-04-30T09:14:31.589Z,19.60
2019-04-30T09:17:01.262Z,19.50
2019-04-30T09:19:30.910Z,19.40
2019-04-30T09:22:00.886Z,18.90
2019-04-30T09:24:31.035Z,18.60
2019-04-30T09:27:00.851Z,18.40
2019-04-30T09:29:30.946Z,18.30
2019-04-30T09:32:00.700Z,18.20
2019-04-30T09:34:30.384Z,18.60
2019-04-30T09:37:19.379Z,18.00
2019-04-30T09:39:49.562Z,18.00
2019-04-30T09:42:19.668Z,18.30
2019-04-30T09:44:49.602Z,18.90
2019-04-30T09:47:20.088Z,18.20
2019-04-30T09:49:49.969Z,18.10
2019-04-30T09:52:20.170Z,18.50
2019-04-30T09:54:51.071Z,18.10
2019-04-30T09:57:20.984Z,18.20
2019-04-30T09:59:51.028Z,18.20
2019-04-30T10:02:21.221Z,18.60
2019-04-30T10:04:51.177Z,18.00
2019-04-30T10:07:21.455Z,17.90
2019-04-30T10:09:51.220Z,17.70
2019-04-30T10:12:20.988Z,17.80
2019-04-30T10:14:50.628Z,17.50
2019-04-30T10:17:27.855Z,17.40
2019-04-30T10:19:57.471Z,17.30
2019-04-30T10:22:27.271Z,17.30
2019-04-30T10:24:57.062Z,17.40
2019-04-30T10:27:29.195Z,16.80
2019-04-30T10:29:59.390Z,17.00
2019-04-30T10:32:30.060Z,17.00
2019-04-30T10:35:00.145Z,16.90
2019-04-30T10:37:29.947Z,17.00
2019-04-30T10:39:59.867Z,16.80
2019-04-30T10:42:29.747Z,16.50
2019-04-30T10:45:00.238Z,16.70
2019-04-30T10:47:32.591Z,16.80
2019-04-30T10:50:01.667Z,16.20
2019-04-30T10:52:31.381Z,16.00
2019-04-30T10:55:01.123Z,16.10
2019-04-30T10:57:30.806Z,16.10
2019-04-30T11:00:00.614Z,16.00
2019-04-30T11:02:31.246Z,16.10
2019-04-30T11:05:00.973Z,16.10
2019-04-30T11:07:30.979Z,15.90
2019-04-30T11:10:01.105Z,15.70
2019-04-30T11:12:31.117Z,16.00
2019-04-30T11:15:00.972Z,15.80
2019-04-30T11:17:33.099Z,16.00
2019-04-30T11:20:02.303Z,16.00
2019-04-30T11:22:32.515Z,15.60
2019-04-30T11:25:03.029Z,15.50
2019-04-30T11:27:33.757Z,15.90
2019-04-30T11:30:24.336Z,15.60
2019-04-30T11:32:54.917Z,15.50
2019-04-30T11:35:24.987Z,15.70
2019-04-30T11:37:54.812Z,15.60
2019-04-30T11:40:34.007Z,16.10
2019-04-30T11:42:58.866Z,15.40
2019-04-30T11:45:54.093Z,15.20
2019-04-30T11:48:24.093Z,15.20
2019-04-30T11:50:54.022Z,15.20
2019-04-30T11:53:27.858Z,15.40
2019-04-30T11:55:55.195Z,15.60
2019-04-30T11:58:25.182Z,15.70
2019-04-30T12:00:54.933Z,15.70
2019-04-30T12:03:24.739Z,15.60
2019-04-30T12:05:54.426Z,15.00
2019-04-30T12:08:26.604Z,15.70
2019-04-30T12:10:58.284Z,15.20
2019-04-30T12:13:29.683Z,15.30
2019-04-30T12:15:59.819Z,15.50
2019-04-30T12:18:29.608Z,15.50
2019-04-30T12:20:59.739Z,15.70
2019-04-30T12:23:29.754Z,15.20
2019-04-30T12:26:02.693Z,15.20
2019-04-30T12:28:31.158Z,15.00
2019-04-30T12:31:01.243Z,15.20
2019-04-30T12:33:31.252Z,15.10
2019-04-30T12:36:01.377Z,15.40
2019-04-30T12:38:31.087Z,15.30
2019-04-30T12:41:00.848Z,15.20
2019-04-30T12:43:30.516Z,15.20
2019-04-30T12:46:03.488Z,15.20
2019-04-30T12:48:33.894Z,15.30
2019-04-30T12:51:08.453Z,14.60
2019-04-30T12:53:54.640Z,15.10
2019-04-30T12:56:27.104Z,15.20
2019-04-30T12:58:57.060Z,14.80
2019-04-30T13:01:31.877Z,15.00
2019-04-30T13:04:02.535Z,15.20
2019-04-30T13:06:32.703Z,15.60
2019-04-30T13:09:03.479Z,15.70
2019-04-30T13:11:33.967Z,15.30
2019-04-30T13:14:04.609Z,15.10
2019-04-30T13:16:34.637Z,15.10
2019-04-30T13:19:04.411Z,15.20
2019-04-30T13:21:34.090Z,15.40
2019-04-30T13:24:05.295Z,15.10
2019-04-30T13:26:34.905Z,15.20
2019-04-30T13:29:12.079Z,15.00
2019-04-30T13:31:41.697Z,14.90
2019-04-30T13:34:25.091Z,15.00
2019-04-30T13:36:55.146Z,15.50
2019-04-30T13:39:29.356Z,16.10
2019-04-30T13:42:15.114Z,15.70
2019-04-30T13:44:36.552Z,15.80
2019-04-30T13:47:06.306Z,15.70
2019-04-30T13:49:35.940Z,16.00
2019-04-30T13:52:06.093Z,15.60
2019-04-30T13:54:35.771Z,15.80
2019-04-30T13:57:05.513Z,15.40
2019-04-30T13:59:35.162Z,15.90
2019-04-30T14:02:04.950Z,15.80
2019-04-30T14:04:48.298Z,15.70
2019-04-30T14:07:19.659Z,16.20
2019-04-30T14:09:50.992Z,15.90
2019-04-30T14:12:20.725Z,16.10
2019-04-30T14:14:50.684Z,16.30
2019-04-30T14:17:20.567Z,16.60
2019-04-30T14:19:50.718Z,17.20
2019-04-30T14:22:20.332Z,16.50
2019-04-30T14:24:50.066Z,16.50
2019-04-30T14:27:20.757Z,17.00
2019-04-30T14:29:50.532Z,17.40
2019-04-30T14:32:20.166Z,16.80
2019-04-30T14:34:50.719Z,16.80
2019-04-30T14:37:20.578Z,17.20
2019-04-30T14:39:50.625Z,17.80
2019-04-30T14:42:21.893Z,17.80
2019-04-30T14:44:54.358Z,17.40
2019-04-30T14:47:26.722Z,18.00
2019-04-30T14:50:10.676Z,17.60
2019-04-30T14:52:42.103Z,18.10
2019-04-30T14:55:25.958Z,18.20
2019-04-30T14:58:03.363Z,17.60
2019-04-30T15:00:34.706Z,18.40
2019-04-30T15:03:06.082Z,17.70
2019-04-30T15:05:41.982Z,18.50
2019-04-30T15:08:08.618Z,17.50
2019-04-30T15:10:38.971Z,18.70
2019-04-30T15:13:09.755Z,19.00
2019-04-30T15:15:39.524Z,18.90
2019-04-30T15:18:09.351Z,18.40
2019-04-30T15:20:39.806Z,18.70
2019-04-30T15:23:27.995Z,18.60
2019-04-30T15:25:58.636Z,18.30
2019-04-30T15:28:32.542Z,18.50
2019-04-30T15:30:59.696Z,18.30
2019-04-30T15:33:34.080Z,17.70
2019-04-30T15:36:05.267Z,18.20
2019-04-30T15:38:52.788Z,18.80
2019-04-30T15:41:22.590Z,19.10
2019-04-30T15:43:52.391Z,19.50
2019-04-30T15:46:22.167Z,19.30
2019-04-30T15:48:51.781Z,19.30
2019-04-30T15:51:21.732Z,19.90
2019-04-30T15:53:51.582Z,19.10
2019-04-30T15:56:21.354Z,18.80
2019-04-30T15:59:09.080Z,19.30
2019-04-30T16:01:40.656Z,19.80
2019-04-30T16:04:11.991Z,19.00
2019-04-30T16:06:41.770Z,18.80
2019-04-30T16:09:20.260Z,19.50
2019-04-30T16:11:54.291Z,18.80
2019-04-30T16:14:25.729Z,19.40
2019-04-30T16:17:06.150Z,18.90
2019-04-30T16:19:35.975Z,18.20
2019-04-30T16:22:06.693Z,17.50
2019-04-30T16:24:38.538Z,17.20
2019-04-30T16:27:09.268Z,17.00
2019-04-30T16:29:40.714Z,17.10
2019-04-30T16:32:10.667Z,17.30
2019-04-30T16:34:40.356Z,17.20
2019-04-30T16:37:10.025Z,16.90
2019-04-30T16:39:39.833Z,16.80
2019-04-30T16:42:09.521Z,16.70
2019-04-30T16:44:39.142Z,16.60
2019-04-30T16:47:14.488Z,16.50
2019-04-30T16:49:40.372Z,17.10
2019-04-30T16:52:10.066Z,18.60
2019-04-30T16:54:39.818Z,18.50
2019-04-30T16:57:10.292Z,18.60
2019-04-30T16:59:41.749Z,18.70
2019-04-30T17:02:12.745Z,18.70
2019-04-30T17:04:55.744Z,18.50
2019-04-30T17:07:28.776Z,18.10
2019-04-30T17:10:09.122Z,17.80
2019-04-30T17:12:40.361Z,17.80
2019-04-30T17:15:14.986Z,18.90
2019-04-30T17:17:44.754Z,18.50
2019-04-30T17:20:14.937Z,22.30
2019-04-30T17:22:44.644Z,20.30
2019-04-30T17:25:14.571Z,19.00
2019-04-30T17:27:44.192Z,19.00
2019-04-30T17:30:15.561Z,18.70
2019-04-30T17:32:45.404Z,18.50
2019-04-30T17:35:15.249Z,18.50
2019-04-30T17:37:44.960Z,18.90
2019-04-30T17:40:14.932Z,19.90
2019-04-30T17:42:44.645Z,20.30
2019-04-30T17:45:14.457Z,20.50
2019-04-30T17:47:44.532Z,20.80
2019-04-30T17:50:14.527Z,20.80
2019-04-30T17:52:44.174Z,20.90
2019-04-30T17:55:13.913Z,21.00
2019-04-30T17:57:44.850Z,21.10
2019-04-30T18:00:19.985Z,21.30
2019-04-30T18:02:48.499Z,21.60
2019-04-30T18:05:19.493Z,21.60
2019-04-30T18:07:49.880Z,21.80
2019-04-30T18:10:20.217Z,22.00
2019-04-30T18:12:50.011Z,22.00
2019-04-30T18:15:21.523Z,22.10
2019-04-30T18:17:55.946Z,22.30
2019-04-30T18:20:43.532Z,22.20
2019-04-30T18:23:26.848Z,22.40
2019-04-30T18:26:06.998Z,22.30
2019-04-30T18:28:36.894Z,22.30
2019-04-30T18:31:06.571Z,22.30
2019-04-30T18:33:36.296Z,22.30
2019-04-30T18:36:06.173Z,22.40
2019-04-30T18:38:35.972Z,22.50
2019-04-30T18:41:05.695Z,22.50
2019-04-30T18:43:37.964Z,22.60
2019-04-30T18:46:06.830Z,22.60
2019-04-30T18:48:36.544Z,22.60
2019-04-30T18:51:23.793Z,22.70
2019-04-30T18:53:39.715Z,23.00
2019-04-30T18:56:14.491Z,22.90
2019-04-30T18:58:43.134Z,22.80
2019-04-30T19:01:12.841Z,22.80
2019-04-30T19:03:42.546Z,22.80
2019-04-30T19:06:23.006Z,22.90
2019-04-30T19:08:49.778Z,22.90
2019-04-30T19:11:28.811Z,22.90
2019-04-30T19:14:03.109Z,22.90
2019-04-30T19:16:46.770Z,22.90
2019-04-30T19:19:19.545Z,22.90
2019-04-30T19:21:49.343Z,22.90
2019-04-30T19:24:19.734Z,23.00
2019-04-30T19:26:49.674Z,22.90
2019-04-30T19:29:19.726Z,23.10
2019-04-30T19:31:49.493Z,22.90
2019-04-30T19:34:19.263Z,22.90
2019-04-30T19:36:49.296Z,22.80
2019-04-30T19:39:19.995Z,22.70
2019-04-30T19:41:49.656Z,22.70
2019-04-30T19:44:20.886Z,22.80
2019-04-30T19:46:50.786Z,22.80
2019-04-30T19:49:20.490Z,22.90
2019-04-30T19:51:53.299Z,22.90
2019-04-30T19:54:21.677Z,22.90
2019-04-30T19:56:51.442Z,22.80
2019-04-30T19:59:21.145Z,22.90
2019-04-30T20:01:50.834Z,22.80
2019-04-30T20:04:32.604Z,22.80
2019-04-30T20:06:52.078Z,22.70
2019-04-30T20:09:43.123Z,22.70
2019-04-30T20:12:12.620Z,22.70
2019-04-30T20:14:42.277Z,22.80
2019-04-30T20:17:13.187Z,22.70
2019-04-30T20:19:43.029Z,22.70
2019-04-30T20:22:12.981Z,22.40
2019-04-30T20:24:42.879Z,22.10
2019-04-30T20:27:12.699Z,21.70
2019-04-30T20:29:42.390Z,21.50
2019-04-30T20:32:12.472Z,21.20
2019-04-30T20:34:42.093Z,20.90
2019-04-30T20:37:11.902Z,20.70
2019-04-30T20:39:43.156Z,20.60
2019-04-30T20:42:13.055Z,20.30
2019-04-30T20:44:42.636Z,20.30
2019-04-30T20:47:12.384Z,20.10
2019-04-30T20:49:42.053Z,20.10
2019-04-30T20:52:12.103Z,19.80
2019-04-30T20:54:41.752Z,19.70
2019-04-30T20:57:11.485Z,19.40
2019-04-30T20:59:41.192Z,19.80
2019-04-30T21:02:10.993Z,19.40
2019-04-30T21:04:41.057Z,19.50
2019-04-30T21:07:10.979Z,21.80
2019-04-30T21:09:40.658Z,23.00
2019-04-30T21:12:10.318Z,24.10
2019-04-30T21:14:40.622Z,23.90
2019-04-30T21:17:10.206Z,24.10
2019-04-30T21:19:39.983Z,24.00
2019-04-30T21:22:29.618Z,24.40
2019-04-30T21:25:00.593Z,24.10
2019-04-30T21:27:30.604Z,24.10
2019-04-30T21:30:00.515Z,24.20
2019-04-30T21:32:48.642Z,24.10
2019-04-30T21:35:25.954Z,24.10
2019-04-30T21:37:59.017Z,24.20
2019-04-30T21:40:29.614Z,24.20
2019-04-30T21:42:59.371Z,24.80
2019-04-30T21:45:29.185Z,24.70
2019-04-30T21:48:01.505Z,24.60
2019-04-30T21:50:31.369Z,24.50
2019-04-30T21:53:01.032Z,24.60
2019-04-30T21:55:30.652Z,24.40
2019-04-30T21:58:00.430Z,24.50
2019-04-30T22:00:31.953Z,24.40
2019-04-30T22:03:01.890Z,24.10
2019-04-30T22:05:31.668Z,24.30
2019-04-30T22:08:01.431Z,24.50
2019-04-30T22:10:33.846Z,24.40
2019-04-30T22:13:03.937Z,24.20
2019-04-30T22:15:33.952Z,24.10
2019-04-30T22:18:03.669Z,24.20
2019-04-30T22:20:33.381Z,24.40
2019-04-30T22:23:03.073Z,24.20
2019-04-30T22:25:32.713Z,24.10
2019-04-30T22:28:02.332Z,24.00
2019-04-30T22:30:32.044Z,24.10
2019-04-30T22:33:01.657Z,24.00
2019-04-30T22:35:33.028Z,23.90
2019-04-30T22:38:20.260Z,23.90
2019-04-30T22:40:49.906Z,24.00
2019-04-30T22:43:19.600Z,23.80
2019-04-30T22:45:51.021Z,24.40
2019-04-30T22:48:20.643Z,24.20
2019-04-30T22:50:50.720Z,24.30
2019-04-30T22:53:20.505Z,24.30
2019-04-30T22:55:50.154Z,24.40
2019-04-30T22:58:19.844Z,24.20
2019-04-30T23:00:51.359Z,24.40
2019-04-30T23:03:22.687Z,24.20
2019-04-30T23:05:52.930Z,24.00
2019-04-30T23:08:22.555Z,24.10
2019-04-30T23:10:52.342Z,24.20
2019-04-30T23:13:22.366Z,24.10
2019-04-30T23:15:54.985Z,24.00
2019-04-30T23:18:25.372Z,24.10
2019-04-30T23:20:55.137Z,24.10
2019-04-30T23:23:24.947Z,24.10
2019-04-30T23:25:54.905Z,23.90
2019-04-30T23:28:24.549Z,24.00
2019-04-30T23:30:54.203Z,24.00
2019-04-30T23:33:23.858Z,24.10
2019-04-30T23:35:53.570Z,24.50
2019-04-30T23:38:23.209Z,24.40
2019-04-30T23:40:52.913Z,24.40
2019-04-30T23:43:22.633Z,24.20
2019-04-30T23:45:52.340Z,24.20
2019-04-30T23:48:22.054Z,24.30
2019-04-30T23:50:51.764Z,24.40
2019-04-30T23:53:21.542Z,24.60
2019-04-30T23:55:51.523Z,24.40
2019-04-30T23:58:21.150Z,24.50
